createdAt,value
2023-02-16T00:00:37.557Z,159.90
2023-02-16T00:01:37.527Z,169.50
2023-02-16T00:02:37.535Z,171.00
2023-02-16T00:03:37.528Z,173.10
2023-02-16T00:04:37.491Z,170.60
2023-02-16T00:05:37.492Z,175.80
2023-02-16T00:06:37.497Z,180.10
2023-02-16T00:07:37.492Z,161.10
2023-02-16T00:08:37.470Z,165.20
2023-02-16T00:09:37.457Z,162.50
2023-02-16T00:10:37.464Z,168.20
2023-02-16T00:11:37.461Z,156.40
2023-02-16T00:12:37.456Z,147.10
2023-02-16T00:13:37.452Z,157.00
2023-02-16T00:14:37.441Z,146.70
2023-02-16T00:15:37.463Z,142.40
2023-02-16T00:16:37.454Z,147.40
2023-02-16T00:17:37.411Z,154.40
2023-02-16T00:18:37.374Z,158.80
2023-02-16T00:19:37.380Z,165.80
2023-02-16T00:20:37.426Z,167.10
2023-02-16T00:21:37.415Z,165.30
2023-02-16T00:22:37.354Z,175.10
2023-02-16T00:23:37.349Z,173.70
2023-02-16T00:24:37.347Z,180.70
2023-02-16T00:25:37.350Z,170.10
2023-02-16T00:26:37.342Z,173.80
2023-02-16T00:28:09.277Z,168.90
2023-02-16T00:28:37.405Z,172.40
2023-02-16T00:29:37.312Z,173.10
2023-02-16T00:30:37.291Z,166.90
2023-02-16T00:31:38.391Z,166.00
2023-02-16T00:32:37.326Z,154.00
2023-02-16T00:33:37.318Z,161.20
2023-02-16T00:34:37.336Z,154.60
2023-02-16T00:35:37.270Z,156.90
2023-02-16T00:36:37.276Z,160.70
2023-02-16T00:37:37.265Z,157.60
2023-02-16T00:38:37.310Z,151.60
2023-02-16T00:39:37.231Z,160.00
2023-02-16T00:40:37.244Z,155.30
2023-02-16T00:41:37.223Z,159.90
2023-02-16T00:42:37.225Z,162.40
2023-02-16T00:43:37.215Z,147.00
2023-02-16T00:44:37.764Z,161.20
2023-02-16T00:45:37.189Z,159.90
2023-02-16T00:46:37.274Z,163.90
2023-02-16T00:47:37.166Z,159.70
2023-02-16T00:48:37.170Z,163.40
2023-02-16T00:49:37.227Z,163.80
2023-02-16T00:50:37.172Z,156.30
2023-02-16T00:51:37.137Z,161.50
2023-02-16T00:52:37.152Z,166.10
2023-02-16T00:53:37.124Z,158.40
2023-02-16T00:54:37.147Z,163.10
2023-02-16T00:55:37.175Z,171.70
2023-02-16T00:56:37.111Z,160.20
2023-02-16T00:57:37.125Z,163.30
2023-02-16T00:58:37.088Z,151.30
2023-02-16T00:59:37.198Z,156.00
2023-02-16T01:00:37.392Z,153.00
2023-02-16T01:01:37.155Z,149.30
2023-02-16T01:02:37.057Z,150.80
2023-02-16T01:03:37.061Z,157.90
2023-02-16T01:04:37.077Z,151.30
2023-02-16T01:05:37.097Z,164.80
2023-02-16T01:06:37.028Z,164.30
2023-02-16T01:07:37.118Z,155.40
2023-02-16T01:08:37.025Z,161.50
2023-02-16T01:09:36.997Z,154.50
2023-02-16T01:10:37.036Z,146.80
2023-02-16T01:11:37.086Z,148.00
2023-02-16T01:12:36.984Z,150.30
2023-02-16T01:13:36.979Z,145.10
2023-02-16T01:14:37.695Z,149.90
2023-02-16T01:15:37.014Z,148.90
2023-02-16T01:16:36.945Z,160.70
2023-02-16T01:17:36.984Z,155.00
2023-02-16T01:18:36.946Z,154.10
2023-02-16T01:19:36.949Z,163.60
2023-02-16T01:20:37.114Z,160.30
2023-02-16T01:21:37.682Z,151.20
2023-02-16T01:22:36.915Z,154.60
2023-02-16T01:23:36.919Z,147.10
2023-02-16T01:24:36.895Z,153.60
2023-02-16T01:25:37.775Z,144.70
2023-02-16T01:26:36.925Z,157.70
2023-02-16T01:27:36.899Z,147.60
2023-02-16T01:28:36.885Z,157.80
2023-02-16T01:29:36.871Z,148.90
2023-02-16T01:30:36.870Z,149.40
2023-02-16T01:31:36.927Z,154.90
2023-02-16T01:32:37.749Z,143.20
2023-02-16T01:33:36.836Z,151.10
2023-02-16T01:34:36.875Z,150.60
2023-02-16T01:35:36.838Z,161.20
2023-02-16T01:36:36.819Z,165.90
2023-02-16T01:37:36.868Z,157.50
2023-02-16T01:38:37.344Z,155.90
2023-02-16T01:39:36.858Z,151.20
2023-02-16T01:40:37.704Z,155.80
2023-02-16T01:41:36.825Z,147.20
2023-02-16T01:42:36.904Z,152.60
2023-02-16T01:43:36.776Z,151.20
2023-02-16T01:44:36.738Z,150.20
2023-02-16T01:45:36.751Z,150.20
2023-02-16T01:46:36.830Z,149.70
2023-02-16T01:47:36.850Z,154.10
2023-02-16T01:48:36.705Z,147.60
2023-02-16T01:49:36.738Z,147.70
2023-02-16T01:50:36.701Z,148.60
2023-02-16T01:51:36.720Z,144.20
2023-02-16T01:52:36.700Z,140.70
2023-02-16T01:53:36.672Z,147.60
2023-02-16T01:54:36.713Z,145.30
2023-02-16T01:55:36.711Z,144.80
2023-02-16T01:56:36.650Z,146.90
2023-02-16T01:57:36.687Z,149.00
2023-02-16T01:58:36.658Z,143.10
2023-02-16T01:59:36.651Z,146.20
2023-02-16T02:00:36.619Z,147.50
2023-02-16T02:01:36.662Z,140.10
2023-02-16T02:02:36.667Z,152.50
2023-02-16T02:03:36.619Z,155.20
2023-02-16T02:04:36.633Z,148.60
2023-02-16T02:05:36.642Z,149.60
2023-02-16T02:06:36.572Z,151.70
2023-02-16T02:07:36.577Z,148.30
2023-02-16T02:08:36.547Z,149.20
2023-02-16T02:09:36.637Z,149.80
2023-02-16T02:10:36.559Z,157.10
2023-02-16T02:11:36.541Z,146.70
2023-02-16T02:12:36.529Z,148.70
2023-02-16T02:13:36.537Z,156.70
2023-02-16T02:14:36.507Z,150.20
2023-02-16T02:15:36.839Z,159.10
2023-02-16T02:16:36.506Z,162.70
2023-02-16T02:17:36.495Z,154.70
2023-02-16T02:18:36.502Z,157.90
2023-02-16T02:19:36.491Z,167.60
2023-02-16T02:20:36.501Z,162.20
2023-02-16T02:21:36.484Z,157.40
2023-02-16T02:22:36.471Z,160.10
2023-02-16T02:23:36.471Z,167.20
2023-02-16T02:24:36.480Z,171.30
2023-02-16T02:25:36.428Z,173.20
2023-02-16T02:26:36.416Z,167.50
2023-02-16T02:27:37.265Z,165.40
2023-02-16T02:28:36.411Z,165.70
2023-02-16T02:29:36.451Z,162.00
2023-02-16T02:30:36.388Z,165.60
2023-02-16T02:31:36.540Z,160.70
2023-02-16T02:32:36.372Z,166.00
2023-02-16T02:33:36.352Z,165.60
2023-02-16T02:34:36.378Z,166.30
2023-02-16T02:35:36.328Z,168.60
2023-02-16T02:36:36.368Z,168.10
2023-02-16T02:37:36.347Z,166.90
2023-02-16T02:38:36.338Z,171.00
2023-02-16T02:39:36.331Z,177.60
2023-02-16T02:40:36.325Z,171.50
2023-02-16T02:41:36.305Z,177.20
2023-02-16T02:42:36.303Z,175.50
2023-02-16T02:43:36.280Z,183.00
2023-02-16T02:44:36.301Z,189.60
2023-02-16T02:45:36.262Z,193.20
2023-02-16T02:46:36.286Z,183.30
2023-02-16T02:47:36.300Z,201.60
2023-02-16T02:48:36.250Z,199.40
2023-02-16T02:49:36.243Z,200.60
2023-02-16T02:50:36.229Z,181.50
2023-02-16T02:51:36.215Z,195.80
2023-02-16T02:52:36.205Z,200.50
2023-02-16T02:53:36.242Z,200.10
2023-02-16T02:54:36.202Z,194.90
2023-02-16T02:55:36.190Z,192.50
2023-02-16T02:56:36.181Z,199.30
2023-02-16T02:57:36.205Z,198.50
2023-02-16T02:58:36.153Z,218.90
2023-02-16T02:59:36.168Z,223.50
2023-02-16T03:00:36.190Z,230.50
2023-02-16T03:01:36.167Z,195.20
2023-02-16T03:02:36.143Z,215.40
2023-02-16T03:03:36.133Z,223.00
2023-02-16T03:04:36.158Z,224.20
2023-02-16T03:05:36.114Z,213.70
2023-02-16T03:06:36.109Z,226.90
2023-02-16T03:07:36.119Z,251.50
2023-02-16T03:08:36.086Z,216.20
2023-02-16T03:09:36.089Z,226.80
2023-02-16T03:10:36.079Z,233.80
2023-02-16T03:11:36.075Z,222.90
2023-02-16T03:12:36.060Z,261.60
2023-02-16T03:13:36.073Z,230.20
2023-02-16T03:14:36.082Z,239.70
2023-02-16T03:15:36.056Z,227.30
2023-02-16T03:16:36.089Z,250.00
2023-02-16T03:17:36.031Z,261.60
2023-02-16T03:18:36.007Z,245.90
2023-02-16T03:19:36.007Z,249.70
2023-02-16T03:20:35.989Z,268.60
2023-02-16T03:21:35.997Z,236.90
2023-02-16T03:22:36.042Z,260.40
2023-02-16T03:23:35.976Z,245.50
2023-02-16T03:24:35.963Z,225.30
2023-02-16T03:25:35.981Z,233.60
2023-02-16T03:26:35.945Z,231.90
2023-02-16T03:27:35.975Z,268.80
2023-02-16T03:28:35.921Z,296.70
2023-02-16T03:29:35.966Z,266.10
2023-02-16T03:30:36.896Z,300.50
2023-02-16T03:31:36.105Z,320.00
2023-02-16T03:32:35.898Z,344.60
2023-02-16T03:33:36.358Z,305.10
2023-02-16T03:34:35.897Z,262.50
2023-02-16T03:35:35.892Z,304.80
2023-02-16T03:36:35.902Z,430.90
2023-02-16T03:37:35.862Z,397.90
2023-02-16T03:38:35.843Z,493.00
2023-02-16T03:39:35.864Z,373.90
2023-02-16T03:40:35.840Z,447.80
2023-02-16T03:41:35.851Z,450.20
2023-02-16T03:42:35.829Z,565.50
2023-02-16T03:43:35.843Z,467.20
2023-02-16T03:44:35.806Z,472.90
2023-02-16T03:45:35.890Z,600.20
2023-02-16T03:46:35.818Z,551.90
2023-02-16T04:02:57.921Z,307.10
2023-02-16T04:03:57.996Z,497.60
2023-02-16T04:04:57.887Z,455.60
2023-02-16T04:05:59.015Z,557.70
2023-02-16T04:06:59.062Z,602.10
2023-02-16T04:07:59.021Z,589.70
2023-02-16T04:08:59.004Z,613.50
2023-02-16T04:09:59.005Z,825.20
2023-02-16T04:10:59.024Z,562.30
2023-02-16T04:11:59.057Z,549.30
2023-02-16T04:12:58.967Z,631.60
2023-02-16T04:13:58.963Z,718.50
2023-02-16T04:14:58.971Z,621.00
2023-02-16T04:15:58.981Z,872.60
2023-02-16T04:16:58.946Z,854.30
2023-02-16T04:17:58.949Z,1104.60
2023-02-16T04:18:58.925Z,1009.30
2023-02-16T04:19:58.989Z,986.50
2023-02-16T04:20:58.903Z,1040.50
2023-02-16T04:21:58.943Z,866.40
2023-02-16T04:22:58.908Z,589.70
2023-02-16T04:23:58.921Z,886.00
2023-02-16T04:24:58.892Z,918.40
2023-02-16T04:25:58.911Z,1040.30
2023-02-16T04:26:58.902Z,878.30
2023-02-16T04:27:58.869Z,764.80
2023-02-16T04:28:58.880Z,645.60
2023-02-16T04:29:58.907Z,772.70
2023-02-16T04:30:58.891Z,542.00
2023-02-16T04:31:59.000Z,736.90
2023-02-16T04:32:58.873Z,748.80
2023-02-16T04:33:58.843Z,522.90
2023-02-16T04:34:58.811Z,753.90
2023-02-16T04:35:58.795Z,681.60
2023-02-16T04:36:58.806Z,497.80
2023-02-16T04:37:58.813Z,435.30
2023-02-16T04:38:58.820Z,493.10
2023-02-16T04:39:58.776Z,492.50
2023-02-16T04:40:58.756Z,684.90
2023-02-16T04:41:58.747Z,753.60
2023-02-16T04:42:58.733Z,794.50
2023-02-16T04:43:58.839Z,605.10
2023-02-16T04:44:58.747Z,852.90
2023-02-16T04:45:58.759Z,477.40
2023-02-16T04:46:58.714Z,689.50
2023-02-16T04:47:58.725Z,462.50
2023-02-16T04:48:58.733Z,613.30
2023-02-16T04:49:58.692Z,689.10
2023-02-16T04:50:58.705Z,562.00
2023-02-16T04:51:58.701Z,867.70
2023-02-16T04:52:58.688Z,774.40
2023-02-16T04:53:58.688Z,889.80
2023-02-16T04:54:58.702Z,805.30
2023-02-16T04:55:58.646Z,662.20
2023-02-16T04:56:58.709Z,744.90
2023-02-16T04:57:58.647Z,610.60
2023-02-16T04:58:58.639Z,964.50
2023-02-16T04:59:58.632Z,651.90
2023-02-16T05:00:58.629Z,729.10
2023-02-16T05:01:58.691Z,856.10
2023-02-16T05:02:58.623Z,647.20
2023-02-16T05:03:58.591Z,607.40
2023-02-16T05:04:58.586Z,468.10
2023-02-16T05:05:58.574Z,539.10
2023-02-16T05:06:58.565Z,548.60
2023-02-16T05:07:58.586Z,441.50
2023-02-16T05:08:58.568Z,462.40
2023-02-16T05:09:58.548Z,480.90
2023-02-16T05:10:58.529Z,558.40
2023-02-16T05:11:58.594Z,531.80
2023-02-16T05:12:58.552Z,570.20
2023-02-16T05:13:58.518Z,484.70
2023-02-16T05:14:58.520Z,416.70
2023-02-16T05:15:59.210Z,442.00
2023-02-16T05:16:58.496Z,353.00
2023-02-16T05:17:58.517Z,385.00
2023-02-16T05:18:58.884Z,363.00
2023-02-16T05:19:59.478Z,411.90
2023-02-16T05:20:58.493Z,397.50
2023-02-16T05:21:58.457Z,379.00
2023-02-16T05:22:58.445Z,370.10
2023-02-16T05:23:58.470Z,420.80
2023-02-16T05:24:59.127Z,451.50
2023-02-16T05:25:58.414Z,407.60
2023-02-16T05:26:58.410Z,423.70
2023-02-16T05:27:58.477Z,442.40
2023-02-16T05:28:58.404Z,488.90
2023-02-16T05:29:58.503Z,422.80
2023-02-16T05:30:58.479Z,420.50
2023-02-16T05:31:58.456Z,413.70
2023-02-16T05:32:58.381Z,409.40
2023-02-16T05:33:58.379Z,391.60
2023-02-16T05:34:58.377Z,383.50
2023-02-16T05:35:58.340Z,371.90
2023-02-16T05:36:58.327Z,418.00
2023-02-16T05:37:59.098Z,503.00
2023-02-16T05:38:58.337Z,413.40
2023-02-16T05:39:58.358Z,455.20
2023-02-16T05:40:58.325Z,411.50
2023-02-16T05:41:58.317Z,313.50
2023-02-16T05:42:58.305Z,362.20
2023-02-16T05:43:58.311Z,361.50
2023-02-16T05:44:58.327Z,380.60
2023-02-16T05:45:58.354Z,346.20
2023-02-16T05:46:58.293Z,340.70
2023-02-16T05:47:58.296Z,335.10
2023-02-16T05:48:58.246Z,307.70
2023-02-16T05:49:58.273Z,328.80
2023-02-16T05:50:58.270Z,310.30
2023-02-16T05:51:58.269Z,318.40
2023-02-16T05:52:58.244Z,317.00
2023-02-16T05:53:58.234Z,299.10
2023-02-16T05:54:58.254Z,364.10
2023-02-16T05:55:58.220Z,289.00
2023-02-16T05:56:58.214Z,322.80
2023-02-16T05:57:58.257Z,294.30
2023-02-16T05:58:58.193Z,295.80
2023-02-16T05:59:58.211Z,292.60
2023-02-16T06:00:58.222Z,334.10
2023-02-16T06:01:58.237Z,349.60
2023-02-16T06:02:58.210Z,311.70
2023-02-16T06:03:58.180Z,256.50
2023-02-16T06:04:58.144Z,233.90
2023-02-16T06:05:58.141Z,257.50
2023-02-16T06:06:58.151Z,253.80
2023-02-16T06:07:58.155Z,257.70
2023-02-16T06:08:58.159Z,262.10
2023-02-16T06:09:58.095Z,277.90
2023-02-16T06:10:58.218Z,271.10
2023-02-16T06:11:58.085Z,275.60
2023-02-16T06:12:58.070Z,237.30
2023-02-16T06:13:58.135Z,236.30
2023-02-16T06:14:58.140Z,220.30
2023-02-16T06:15:58.124Z,262.10
2023-02-16T06:16:58.632Z,254.10
2023-02-16T06:17:58.040Z,287.40
2023-02-16T06:18:58.068Z,264.30
2023-02-16T06:19:58.031Z,248.10
2023-02-16T06:20:58.043Z,234.50
2023-02-16T06:21:58.022Z,200.50
2023-02-16T06:22:58.022Z,225.50
2023-02-16T06:23:58.010Z,243.50
2023-02-16T06:24:58.029Z,234.00
2023-02-16T06:25:57.976Z,234.80
2023-02-16T06:26:57.999Z,246.90
2023-02-16T06:28:03.909Z,258.50
2023-02-16T06:28:57.960Z,237.00
2023-02-16T06:29:58.021Z,211.70
2023-02-16T06:30:58.029Z,202.10
2023-02-16T06:31:58.059Z,214.40
2023-02-16T06:32:57.924Z,198.00
2023-02-16T06:33:57.931Z,186.40
2023-02-16T06:34:57.924Z,207.20
2023-02-16T06:35:57.929Z,205.40
2023-02-16T06:36:57.902Z,208.50
2023-02-16T06:37:57.892Z,181.40
2023-02-16T06:38:57.906Z,190.20
2023-02-16T06:39:57.897Z,217.50
2023-02-16T06:40:57.918Z,204.60
2023-02-16T06:41:57.891Z,210.00
2023-02-16T06:42:57.893Z,211.80
2023-02-16T06:43:57.866Z,182.70
2023-02-16T06:44:57.847Z,192.20
2023-02-16T06:45:57.840Z,192.50
2023-02-16T06:46:57.909Z,168.30
2023-02-16T06:47:57.829Z,179.70
2023-02-16T06:48:57.830Z,197.50
2023-02-16T06:49:57.833Z,190.50
2023-02-16T06:50:57.812Z,181.50
2023-02-16T06:51:57.836Z,169.30
2023-02-16T06:52:57.799Z,185.30
2023-02-16T06:53:57.795Z,199.30
2023-02-16T06:54:58.631Z,180.40
2023-02-16T06:55:57.817Z,202.00
2023-02-16T06:56:57.818Z,193.90
2023-02-16T06:57:57.757Z,221.90
2023-02-16T06:58:57.838Z,219.10
2023-02-16T06:59:57.782Z,193.10
2023-02-16T07:00:57.792Z,205.20
2023-02-16T07:01:57.763Z,220.50
2023-02-16T07:02:57.772Z,210.40
2023-02-16T07:03:57.715Z,192.00
2023-02-16T07:04:57.726Z,196.90
2023-02-16T07:05:57.692Z,180.30
2023-02-16T07:06:57.695Z,172.60
2023-02-16T07:07:57.717Z,193.30
2023-02-16T07:08:57.730Z,176.20
2023-02-16T07:09:57.673Z,192.40
2023-02-16T07:10:57.662Z,177.70
2023-02-16T07:11:57.650Z,182.70
2023-02-16T07:12:57.644Z,171.40
2023-02-16T07:13:57.678Z,197.80
2023-02-16T07:14:57.623Z,155.70
2023-02-16T07:15:57.690Z,175.00
2023-02-16T07:16:57.614Z,221.50
2023-02-16T07:17:57.596Z,225.10
2023-02-16T07:18:57.623Z,204.80
2023-02-16T07:19:59.904Z,194.00
2023-02-16T07:20:58.593Z,188.20
2023-02-16T07:21:57.572Z,185.10
2023-02-16T07:22:57.569Z,195.40
2023-02-16T07:23:57.569Z,183.60
2023-02-16T07:24:57.593Z,180.40
2023-02-16T07:25:57.596Z,180.80
2023-02-16T07:26:57.529Z,183.80
2023-02-16T07:27:57.523Z,178.70
2023-02-16T07:28:57.562Z,170.00
2023-02-16T07:29:57.592Z,170.80
2023-02-16T07:30:57.504Z,146.10
2023-02-16T07:31:58.619Z,138.70
2023-02-16T07:32:57.495Z,167.00
2023-02-16T07:33:57.482Z,170.80
2023-02-16T07:34:57.584Z,164.80
2023-02-16T07:35:57.462Z,177.00
2023-02-16T07:36:57.496Z,175.50
2023-02-16T07:37:57.457Z,163.30
2023-02-16T07:38:57.447Z,154.50
2023-02-16T07:39:57.501Z,154.20
2023-02-16T07:40:57.442Z,142.60
2023-02-16T07:41:57.448Z,127.80
2023-02-16T07:42:57.442Z,149.90
2023-02-16T07:43:57.423Z,141.70
2023-02-16T07:44:57.409Z,145.90
2023-02-16T07:45:57.479Z,146.80
2023-02-16T07:46:57.387Z,140.10
2023-02-16T07:47:57.425Z,147.10
2023-02-16T07:48:57.390Z,111.00
2023-02-16T07:49:57.387Z,145.40
2023-02-16T07:50:57.373Z,140.00
2023-02-16T07:51:57.358Z,140.50
2023-02-16T07:52:57.354Z,132.40
2023-02-16T07:53:57.370Z,137.40
2023-02-16T07:54:57.323Z,148.00
2023-02-16T07:55:57.312Z,122.70
2023-02-16T07:56:57.314Z,125.30
2023-02-16T07:57:57.423Z,125.90
2023-02-16T07:58:58.172Z,126.30
2023-02-16T07:59:57.312Z,117.60
2023-02-16T08:00:57.315Z,122.90
2023-02-16T08:01:57.443Z,118.10
2023-02-16T08:02:57.417Z,114.60
2023-02-16T08:03:57.256Z,115.50
2023-02-16T08:04:57.279Z,105.70
2023-02-16T08:05:57.286Z,88.30
2023-02-16T08:06:57.251Z,97.70
2023-02-16T08:07:57.267Z,105.40
2023-02-16T08:08:57.287Z,108.50
2023-02-16T08:09:57.217Z,113.90
2023-02-16T08:10:57.214Z,112.00
2023-02-16T08:11:57.245Z,107.40
2023-02-16T08:12:57.179Z,103.50
2023-02-16T08:13:57.201Z,103.50
2023-02-16T08:14:57.183Z,102.00
2023-02-16T08:15:57.178Z,97.30
2023-02-16T08:16:57.205Z,98.70
2023-02-16T08:17:57.166Z,107.40
2023-02-16T08:18:57.179Z,104.50
2023-02-16T08:19:57.181Z,106.80
2023-02-16T08:21:04.342Z,110.40
2023-02-16T08:21:59.158Z,110.10
2023-02-16T08:22:57.114Z,102.60
2023-02-16T08:23:57.158Z,100.40
2023-02-16T08:24:57.151Z,100.10
2023-02-16T08:25:57.120Z,96.40
2023-02-16T08:26:57.090Z,93.10
2023-02-16T08:27:57.114Z,93.10
2023-02-16T08:28:57.070Z,96.60
2023-02-16T08:29:57.107Z,91.50
2023-02-16T08:30:57.159Z,77.70
2023-02-16T08:31:57.124Z,90.30
2023-02-16T08:32:57.076Z,85.70
2023-02-16T08:33:57.057Z,90.80
2023-02-16T08:34:57.087Z,86.90
2023-02-16T08:35:57.027Z,87.30
2023-02-16T08:36:57.073Z,79.10
2023-02-16T08:37:57.011Z,82.90
2023-02-16T08:38:57.024Z,83.50
2023-02-16T08:39:57.043Z,73.60
2023-02-16T08:40:56.991Z,81.30
2023-02-16T08:41:57.040Z,75.30
2023-02-16T08:42:56.997Z,74.10
2023-02-16T08:43:56.975Z,77.90
2023-02-16T08:44:57.033Z,78.90
2023-02-16T08:45:56.997Z,77.70
2023-02-16T08:46:56.981Z,73.80
2023-02-16T08:47:56.955Z,71.80
2023-02-16T08:48:56.922Z,73.40
2023-02-16T08:49:56.908Z,60.10
2023-02-16T08:50:56.945Z,63.00
2023-02-16T08:51:56.912Z,68.70
2023-02-16T08:52:56.908Z,65.80
2023-02-16T08:53:56.907Z,63.70
2023-02-16T08:54:56.892Z,62.20
2023-02-16T08:55:56.884Z,57.80
2023-02-16T08:56:56.876Z,60.90
2023-02-16T08:57:56.886Z,54.40
2023-02-16T08:58:56.866Z,47.80
2023-02-16T08:59:56.874Z,49.50
2023-02-16T09:00:56.872Z,43.70
2023-02-16T09:01:56.838Z,42.80
2023-02-16T09:02:56.842Z,39.40
2023-02-16T09:03:56.826Z,37.50
2023-02-16T09:04:57.687Z,40.40
2023-02-16T09:05:56.810Z,40.80
2023-02-16T09:06:56.832Z,44.60
2023-02-16T09:07:56.810Z,48.10
2023-02-16T09:08:56.810Z,64.90
2023-02-16T09:09:56.804Z,62.00
2023-02-16T09:10:56.787Z,55.70
2023-02-16T09:11:56.755Z,43.00
2023-02-16T09:12:56.769Z,40.30
2023-02-16T09:13:56.755Z,42.30
2023-02-16T09:14:56.788Z,45.10
2023-02-16T09:15:57.655Z,39.70
2023-02-16T09:16:56.710Z,41.50
2023-02-16T09:17:56.747Z,42.30
2023-02-16T09:18:56.722Z,40.20
2023-02-16T09:19:56.706Z,39.00
2023-02-16T09:20:56.708Z,38.40
2023-02-16T09:21:56.743Z,38.30
2023-02-16T09:22:57.685Z,35.80
2023-02-16T09:23:56.660Z,35.60
2023-02-16T09:24:56.690Z,35.00
2023-02-16T09:25:56.633Z,37.10
2023-02-16T09:26:56.659Z,34.60
2023-02-16T09:27:56.636Z,33.30
2023-02-16T09:28:58.869Z,32.70
2023-02-16T09:29:56.661Z,34.00
2023-02-16T09:30:56.733Z,33.30
2023-02-16T09:31:56.665Z,31.00
2023-02-16T09:32:56.586Z,31.40
2023-02-16T09:33:56.633Z,35.00
2023-02-16T09:34:56.579Z,33.00
2023-02-16T09:35:56.552Z,31.90
2023-02-16T09:36:56.575Z,31.70
2023-02-16T09:37:56.546Z,32.70
2023-02-16T09:38:56.555Z,31.90
2023-02-16T09:39:57.522Z,34.80
2023-02-16T09:40:56.545Z,32.10
2023-02-16T09:41:56.558Z,32.10
2023-02-16T09:42:56.533Z,30.20
2023-02-16T09:43:57.151Z,29.20
2023-02-16T09:44:56.498Z,30.80
2023-02-16T09:45:56.528Z,31.00
2023-02-16T09:46:56.490Z,35.60
2023-02-16T09:47:56.501Z,32.10
2023-02-16T09:48:56.486Z,28.70
2023-02-16T09:49:56.476Z,30.10
2023-02-16T09:50:56.481Z,29.50
2023-02-16T09:51:56.444Z,30.30
2023-02-16T09:52:56.456Z,28.00
2023-02-16T09:53:56.422Z,31.40
2023-02-16T09:54:56.443Z,27.50
2023-02-16T09:55:56.414Z,28.40
2023-02-16T09:56:56.443Z,30.10
2023-02-16T09:57:56.399Z,28.10
2023-02-16T09:58:56.400Z,26.60
2023-02-16T09:59:56.409Z,30.30
2023-02-16T10:00:57.155Z,27.40
2023-02-16T10:01:56.363Z,29.80
2023-02-16T10:02:56.376Z,26.80
2023-02-16T10:03:56.330Z,27.80
2023-02-16T10:04:56.363Z,26.50
2023-02-16T10:05:56.338Z,27.20
2023-02-16T10:06:56.325Z,26.80
2023-02-16T10:07:56.314Z,26.60
2023-02-16T10:08:56.328Z,27.00
2023-02-16T10:09:56.308Z,28.50
2023-02-16T10:10:56.307Z,29.40
2023-02-16T10:11:56.303Z,28.90
2023-02-16T10:12:56.283Z,28.10
2023-02-16T10:13:56.296Z,26.70
2023-02-16T10:14:56.269Z,30.40
2023-02-16T10:15:56.311Z,28.70
2023-02-16T10:16:56.261Z,26.90
2023-02-16T10:17:56.247Z,27.80
2023-02-16T10:18:56.240Z,26.80
2023-02-16T10:19:56.257Z,29.10
2023-02-16T10:20:56.269Z,26.90
2023-02-16T10:21:56.257Z,27.20
2023-02-16T10:22:56.237Z,34.50
2023-02-16T10:23:56.225Z,35.20
2023-02-16T10:24:56.280Z,30.90
2023-02-16T10:25:56.187Z,27.80
2023-02-16T10:26:56.193Z,29.70
2023-02-16T10:27:56.190Z,27.20
2023-02-16T10:28:56.176Z,28.90
2023-02-16T10:29:56.234Z,27.20
2023-02-16T10:30:56.208Z,28.30
2023-02-16T10:31:56.296Z,28.20
2023-02-16T10:32:56.161Z,29.40
2023-02-16T10:33:56.166Z,29.80
2023-02-16T10:34:56.175Z,28.30
2023-02-16T10:35:56.136Z,27.60
2023-02-16T10:36:56.120Z,29.10
2023-02-16T10:37:56.087Z,29.60
2023-02-16T10:38:56.098Z,27.80
2023-02-16T10:39:56.094Z,28.50
2023-02-16T10:40:56.134Z,28.00
2023-02-16T10:41:56.088Z,29.40
2023-02-16T10:42:56.090Z,28.30
2023-02-16T10:43:56.072Z,28.60
2023-02-16T10:44:56.073Z,27.50
2023-02-16T10:45:56.057Z,28.30
2023-02-16T10:46:56.062Z,25.80
2023-02-16T10:47:56.013Z,29.00
2023-02-16T10:48:56.026Z,26.80
2023-02-16T10:49:56.065Z,26.80
2023-02-16T10:50:56.009Z,26.70
2023-02-16T10:51:56.013Z,26.60
2023-02-16T10:52:56.011Z,27.10
2023-02-16T10:53:55.980Z,27.60
2023-02-16T10:54:55.995Z,26.90
2023-02-16T10:55:55.958Z,28.10
2023-02-16T10:56:55.937Z,28.50
2023-02-16T10:57:55.987Z,27.60
2023-02-16T10:58:55.941Z,29.90
2023-02-16T10:59:55.928Z,27.50
2023-02-16T11:00:55.894Z,26.00
2023-02-16T11:01:55.983Z,28.20
2023-02-16T11:02:55.895Z,26.60
2023-02-16T11:03:55.890Z,27.20
2023-02-16T11:04:55.883Z,29.70
2023-02-16T11:05:55.897Z,26.90
2023-02-16T11:06:56.790Z,28.90
2023-02-16T11:07:55.859Z,28.60
2023-02-16T11:08:55.869Z,30.10
2023-02-16T11:09:55.881Z,28.40
2023-02-16T11:10:55.846Z,28.40
2023-02-16T11:11:55.883Z,29.80
2023-02-16T11:12:55.854Z,27.10
2023-02-16T11:13:55.835Z,27.80
2023-02-16T11:14:55.823Z,30.30
2023-02-16T11:15:55.877Z,31.90
2023-02-16T11:16:55.819Z,29.70
2023-02-16T11:17:55.806Z,32.60
2023-02-16T11:18:55.785Z,33.00
2023-02-16T11:19:55.801Z,33.80
2023-02-16T11:20:55.771Z,36.70
2023-02-16T11:21:55.816Z,34.80
2023-02-16T11:22:55.766Z,33.10
2023-02-16T11:23:55.769Z,31.90
2023-02-16T11:24:55.743Z,31.00
2023-02-16T11:25:55.725Z,29.00
2023-02-16T11:26:55.729Z,31.70
2023-02-16T11:27:55.717Z,27.90
2023-02-16T11:28:55.729Z,27.60
2023-02-16T11:29:55.710Z,29.40
2023-02-16T11:30:55.737Z,28.30
2023-02-16T11:31:55.718Z,28.50
2023-02-16T11:32:55.695Z,27.40
2023-02-16T11:33:55.722Z,27.50
2023-02-16T11:34:55.703Z,27.20
2023-02-16T11:35:55.657Z,27.00
2023-02-16T11:36:55.670Z,26.50
2023-02-16T11:37:55.641Z,28.40
2023-02-16T11:38:55.663Z,28.40
2023-02-16T11:39:55.719Z,31.00
2023-02-16T11:40:55.603Z,28.60
2023-02-16T11:41:56.233Z,27.60
2023-02-16T11:42:55.606Z,28.00
2023-02-16T11:43:55.613Z,31.90
2023-02-16T11:44:55.620Z,27.80
2023-02-16T11:45:55.564Z,29.50
2023-02-16T11:46:55.562Z,29.80
2023-02-16T11:47:55.586Z,28.40
2023-02-16T11:48:55.546Z,30.00
2023-02-16T11:49:55.575Z,30.20
2023-02-16T11:50:55.560Z,29.00
2023-02-16T11:51:55.577Z,29.90
2023-02-16T11:52:55.529Z,27.20
2023-02-16T11:53:55.505Z,31.80
2023-02-16T11:54:55.527Z,30.60
2023-02-16T11:55:55.490Z,35.40
2023-02-16T11:56:55.514Z,30.50
2023-02-16T11:57:55.758Z,34.40
2023-02-16T11:58:55.508Z,31.50
2023-02-16T11:59:55.471Z,32.90
2023-02-16T12:00:55.486Z,33.60
2023-02-16T12:01:55.458Z,29.00
2023-02-16T12:02:55.487Z,33.40
2023-02-16T12:03:55.497Z,31.80
2023-02-16T12:04:55.521Z,32.30
2023-02-16T12:05:55.432Z,30.30
2023-02-16T12:06:55.411Z,30.50
2023-02-16T12:07:55.441Z,31.80
2023-02-16T12:08:56.055Z,29.90
2023-02-16T12:09:55.425Z,30.00
2023-02-16T12:10:55.422Z,31.50
2023-02-16T12:11:55.389Z,28.80
2023-02-16T12:12:55.408Z,31.10
2023-02-16T12:13:55.378Z,31.50
2023-02-16T12:14:55.355Z,29.10
2023-02-16T12:15:55.425Z,29.10
2023-02-16T12:16:55.373Z,32.90
2023-02-16T12:17:55.340Z,27.90
2023-02-16T12:18:55.456Z,28.80
2023-02-16T12:19:55.324Z,26.50
2023-02-16T12:20:55.314Z,28.30
2023-02-16T12:21:55.413Z,30.00
2023-02-16T12:22:55.300Z,34.70
2023-02-16T12:23:55.312Z,32.40
2023-02-16T12:24:55.284Z,33.70
2023-02-16T12:25:55.267Z,32.00
2023-02-16T12:26:55.293Z,28.30
2023-02-16T12:27:55.290Z,30.30
2023-02-16T12:28:55.257Z,27.40
2023-02-16T12:29:55.284Z,30.40
2023-02-16T12:30:55.292Z,32.50
2023-02-16T12:31:55.290Z,26.50
2023-02-16T12:32:55.213Z,28.10
2023-02-16T12:33:55.210Z,26.90
2023-02-16T12:34:55.187Z,28.30
2023-02-16T12:35:55.197Z,34.60
2023-02-16T12:36:55.219Z,29.40
2023-02-16T12:37:55.254Z,34.10
2023-02-16T12:38:55.171Z,30.40
2023-02-16T12:39:55.166Z,30.70
2023-02-16T12:40:56.580Z,29.40
2023-02-16T12:41:55.149Z,27.90
2023-02-16T12:42:55.132Z,28.00
2023-02-16T12:43:55.190Z,27.20
2023-02-16T12:44:55.133Z,27.20
2023-02-16T12:45:55.252Z,28.70
2023-02-16T12:46:55.096Z,27.40
2023-02-16T12:47:55.093Z,31.30
2023-02-16T12:48:55.089Z,28.00
2023-02-16T12:49:55.097Z,29.70
2023-02-16T12:50:55.076Z,31.20
2023-02-16T12:51:55.067Z,30.50